Weather at Karlstad Airport

Public forecast

Using degrees Celsius for public forecast. Weather courtesy of forecast.io.

Current aviation weather report (METAR) for Karlstad Airport

Retrieved 2022/08/14 14:20 UTC (18 minutes ago):

ESOK 141420Z AUTO 17009KT 140V200 9999 NCD 28/09 Q1015

Aviation forecast (TAF) for Karlstad Airport

Forecast is more than 12 hours old.

Retrieved 2022/04/07 18:12 UTC (4 months ago):

TAF TAF ESOK 071731Z 0718/0806 CNL